Time;durP1;ratioP1;P1;durP2;ratioP2;P2;SDS_P1;SDS_P2;PMS_P1;PMS_P2;Temp;Humidity;BMP_temperature;BMP_pressure;BME280_temperature;BME280_humidity;BME280_pressure;Samples;Min_cycle;Max_cycle;Signal;HPM_P1;HPM_P2
2021/05/06 00:32:58;;;;;;;6.88;3.13;;;;;;;;;;5083125;28;20416;-70
2021/05/06 00:35:28;;;;;;;5.07;2.95;;;;;;;;;;5084596;28;20665;-73
2021/05/06 00:40:43;;;;;;;5.80;2.80;;;;;;;;;;5086380;28;20458;-70
2021/05/06 00:43:39;;;;;;;5.32;3.22;;;;;;;;;;5078760;28;20415;-70
2021/05/06 00:54:34;;;;;;;5.15;3.20;;;;;;;;;;5070871;28;20461;-70
2021/05/06 00:57:16;;;;;;;5.72;3.47;;;;;;;;;;5087530;28;20405;-71
2021/05/06 01:04:57;;;;;;;7.05;4.20;;;;;;;;;;5072629;28;20463;-71
2021/05/06 01:12:22;;;;;;;7.55;4.85;;;;;;;;;;5083061;28;20478;-70
2021/05/06 01:14:48;;;;;;;7.10;4.53;;;;;;;;;;5074847;28;21036;-71
2021/05/06 01:17:14;;;;;;;9.35;5.15;;;;;;;;;;5074144;28;20408;-70
2021/05/06 01:19:40;;;;;;;7.80;5.13;;;;;;;;;;5080059;28;20483;-70
2021/05/06 01:22:06;;;;;;;8.70;5.32;;;;;;;;;;5075438;28;20839;-70
2021/05/06 01:24:32;;;;;;;7.83;5.03;;;;;;;;;;5077659;28;20469;-70
2021/05/06 01:29:39;;;;;;;8.43;5.28;;;;;;;;;;5077159;28;21091;-70
2021/05/06 01:32:24;;;;;;;7.47;5.20;;;;;;;;;;5088246;28;20386;-70
2021/05/06 01:34:56;;;;;;;8.25;5.35;;;;;;;;;;5076561;28;20468;-70
2021/05/06 01:37:35;;;;;;;9.27;5.40;;;;;;;;;;5076926;28;20445;-71
2021/05/06 01:42:49;;;;;;;7.40;4.70;;;;;;;;;;5077032;28;20435;-71
2021/05/06 01:45:41;;;;;;;7.60;5.67;;;;;;;;;;5077787;28;20421;-70
2021/05/06 01:48:10;;;;;;;7.80;5.20;;;;;;;;;;5069142;28;20411;-70
2021/05/06 01:59:02;;;;;;;8.30;5.35;;;;;;;;;;5076875;28;20937;-71
2021/05/06 02:01:28;;;;;;;8.90;5.75;;;;;;;;;;5075385;28;20708;-70
2021/05/06 02:03:54;;;;;;;8.38;5.65;;;;;;;;;;5078647;28;20404;-71
2021/05/06 02:06:21;;;;;;;7.63;5.23;;;;;;;;;;5073720;28;20425;-70
2021/05/06 02:08:47;;;;;;;8.27;5.45;;;;;;;;;;5079961;28;20439;-70
2021/05/06 02:11:13;;;;;;;8.00;5.72;;;;;;;;;;5079894;28;20393;-71
2021/05/06 02:13:39;;;;;;;8.25;5.25;;;;;;;;;;5075917;28;20436;-70
2021/05/06 02:16:15;;;;;;;7.07;5.30;;;;;;;;;;5084119;28;20424;-70
2021/05/06 02:18:41;;;;;;;7.50;5.55;;;;;;;;;;5085600;28;20781;-71
2021/05/06 02:21:10;;;;;;;9.18;6.00;;;;;;;;;;5077527;28;20393;-71
2021/05/06 02:23:37;;;;;;;7.75;5.57;;;;;;;;;;5084724;28;20390;-70
2021/05/06 02:26:04;;;;;;;8.48;6.05;;;;;;;;;;5072265;28;20713;-71
2021/05/06 02:28:30;;;;;;;8.52;5.30;;;;;;;;;;5075743;28;20391;-70
2021/05/06 02:30:56;;;;;;;6.85;5.40;;;;;;;;;;5082723;28;20382;-70
2021/05/06 02:33:22;;;;;;;8.82;5.60;;;;;;;;;;5076463;28;20427;-70
2021/05/06 02:35:48;;;;;;;8.77;5.57;;;;;;;;;;5082716;28;20401;-71
2021/05/06 02:38:13;;;;;;;8.35;5.88;;;;;;;;;;5081235;28;20411;-70
2021/05/06 02:40:39;;;;;;;8.90;5.40;;;;;;;;;;5083017;28;21124;-71
2021/05/06 02:43:05;;;;;;;8.50;5.97;;;;;;;;;;5079550;28;21155;-71
2021/05/06 02:45:31;;;;;;;7.13;5.73;;;;;;;;;;5076205;28;20493;-70
2021/05/06 02:47:57;;;;;;;8.18;6.05;;;;;;;;;;5083107;28;20390;-70
2021/05/06 02:50:24;;;;;;;8.77;5.82;;;;;;;;;;5072218;28;20396;-70
2021/05/06 02:53:01;;;;;;;8.35;6.00;;;;;;;;;;5077581;28;20407;-70
2021/05/06 02:55:37;;;;;;;7.63;5.80;;;;;;;;;;5075330;28;20426;-71
2021/05/06 02:58:22;;;;;;;7.70;5.85;;;;;;;;;;5080885;28;20434;-70
2021/05/06 03:03:42;;;;;;;8.57;6.87;;;;;;;;;;5082188;28;20488;-71
2021/05/06 03:06:12;;;;;;;8.13;6.23;;;;;;;;;;5074280;28;20420;-70
2021/05/06 03:08:42;;;;;;;9.90;6.75;;;;;;;;;;5069597;28;20434;-71
2021/05/06 03:24:23;;;;;;;9.50;7.15;;;;;;;;;;5078045;28;20479;-70
2021/05/06 03:26:50;;;;;;;8.70;6.93;;;;;;;;;;5074375;28;20387;-70
2021/05/06 03:29:28;;;;;;;8.57;6.68;;;;;;;;;;5067764;28;20486;-70
2021/05/06 03:32:08;;;;;;;9.05;6.97;;;;;;;;;;5077944;28;20711;-70
2021/05/06 03:42:53;;;;;;;9.75;7.63;;;;;;;;;;5074568;28;20406;-71
2021/05/06 03:45:40;;;;;;;9.98;7.43;;;;;;;;;;5074518;28;20427;-70
2021/05/06 04:12:45;;;;;;;11.10;8.80;;;;;;;;;;5075949;28;20505;-70
2021/05/06 04:15:26;;;;;;;11.82;9.13;;;;;;;;;;5079149;28;20583;-71
2021/05/06 04:17:58;;;;;;;13.57;8.90;;;;;;;;;;5077021;28;20433;-69
2021/05/06 04:26:14;;;;;;;10.75;9.30;;;;;;;;;;5083347;28;20424;-69
2021/05/06 04:35:28;;;;;;;12.85;9.88;;;;;;;;;;5077480;28;20490;-71
2021/05/06 04:39:29;;;;;;;14.07;10.35;;;;;;;;;;5089779;28;20910;-70
2021/05/06 04:42:10;;;;;;;17.33;11.77;;;;;;;;;;5089179;28;20394;-70
2021/05/06 04:50:20;;;;;;;18.83;12.75;;;;;;;;;;5089038;28;20467;-71
2021/05/06 04:58:27;;;;;;;21.40;15.35;;;;;;;;;;5087531;28;20433;-70
2021/05/06 05:03:45;;;;;;;18.73;15.00;;;;;;;;;;5088964;28;20401;-69
2021/05/06 05:06:14;;;;;;;17.20;14.57;;;;;;;;;;5089083;28;20511;-69
2021/05/06 05:08:48;;;;;;;20.35;16.05;;;;;;;;;;5089031;28;20550;-71
2021/05/06 05:26:46;;;;;;;21.15;18.42;;;;;;;;;;5084449;28;21002;-70
2021/05/06 05:29:12;;;;;;;22.45;18.95;;;;;;;;;;5088814;28;20382;-70
2021/05/06 05:31:38;;;;;;;21.67;18.83;;;;;;;;;;5087693;28;20505;-70
2021/05/06 05:34:28;;;;;;;23.80;20.02;;;;;;;;;;5087527;28;20487;-70
2021/05/06 05:36:56;;;;;;;24.43;19.80;;;;;;;;;;5088355;28;20904;-70
2021/05/06 05:39:40;;;;;;;24.33;19.92;;;;;;;;;;5088863;28;20426;-70
2021/05/06 05:42:17;;;;;;;23.95;19.45;;;;;;;;;;5088121;28;20398;-71
2021/05/06 05:55:06;;;;;;;24.75;20.85;;;;;;;;;;5084581;28;20404;-70
2021/05/06 05:57:32;;;;;;;27.45;22.90;;;;;;;;;;5087163;28;20433;-70
2021/05/06 05:59:58;;;;;;;27.20;22.27;;;;;;;;;;5086999;28;20767;-70
2021/05/06 06:02:24;;;;;;;28.98;23.25;;;;;;;;;;5086742;28;20432;-70
2021/05/06 06:04:50;;;;;;;27.20;22.95;;;;;;;;;;5087647;28;20413;-70
2021/05/06 06:07:16;;;;;;;29.23;24.90;;;;;;;;;;5086174;28;20409;-71
2021/05/06 06:09:42;;;;;;;28.77;24.67;;;;;;;;;;5088006;28;20390;-70
2021/05/06 06:12:08;;;;;;;29.30;25.17;;;;;;;;;;5086843;28;20804;-70
2021/05/06 06:17:09;;;;;;;33.95;27.58;;;;;;;;;;5087498;28;20433;-70
2021/05/06 06:19:36;;;;;;;32.65;26.60;;;;;;;;;;5087583;28;20864;-70
2021/05/06 06:22:08;;;;;;;33.67;27.38;;;;;;;;;;5087373;28;20393;-70
2021/05/06 06:24:34;;;;;;;30.03;25.87;;;;;;;;;;5087299;28;20522;-70
2021/05/06 06:27:00;;;;;;;33.83;28.20;;;;;;;;;;5087892;28;20421;-70
2021/05/06 06:29:32;;;;;;;33.33;28.27;;;;;;;;;;5088012;28;20677;-70
2021/05/06 06:31:58;;;;;;;35.80;30.20;;;;;;;;;;5087727;28;20390;-70
2021/05/06 06:34:24;;;;;;;37.60;30.42;;;;;;;;;;5088396;28;20393;-70
2021/05/06 06:36:50;;;;;;;34.13;29.13;;;;;;;;;;5089241;28;20704;-70
2021/05/06 06:39:16;;;;;;;36.90;30.38;;;;;;;;;;5078929;28;20375;-70
2021/05/06 06:41:47;;;;;;;34.83;29.20;;;;;;;;;;5077624;28;20415;-70
2021/05/06 06:44:14;;;;;;;36.07;30.57;;;;;;;;;;5069020;28;20590;-69
2021/05/06 06:46:40;;;;;;;37.33;31.13;;;;;;;;;;5069023;28;20367;-70
2021/05/06 06:49:07;;;;;;;37.17;30.35;;;;;;;;;;5068308;28;20422;-70
2021/05/06 06:51:33;;;;;;;35.38;29.80;;;;;;;;;;5069560;28;20364;-70
2021/05/06 06:53:59;;;;;;;34.22;29.60;;;;;;;;;;5068747;28;20375;-70
2021/05/06 06:56:25;;;;;;;35.50;29.75;;;;;;;;;;5068932;28;20367;-70
2021/05/06 06:58:52;;;;;;;36.70;31.45;;;;;;;;;;5068632;28;20372;-70
2021/05/06 07:01:19;;;;;;;36.30;30.05;;;;;;;;;;5068543;28;20375;-71
2021/05/06 07:03:45;;;;;;;34.92;29.63;;;;;;;;;;5079925;28;20399;-70
2021/05/06 07:06:11;;;;;;;34.72;28.13;;;;;;;;;;5084857;28;20510;-70
2021/05/06 07:08:39;;;;;;;31.20;27.80;;;;;;;;;;5088221;28;20362;-70
2021/05/06 07:11:06;;;;;;;33.88;28.30;;;;;;;;;;5088928;28;20427;-70
2021/05/06 07:13:32;;;;;;;31.52;27.42;;;;;;;;;;5079876;28;20839;-70
2021/05/06 07:16:00;;;;;;;33.33;27.43;;;;;;;;;;5074800;28;20408;-71
2021/05/06 07:18:27;;;;;;;35.00;28.60;;;;;;;;;;5092126;28;20361;-70
2021/05/06 07:20:53;;;;;;;31.60;27.92;;;;;;;;;;5092585;28;20902;-70
2021/05/06 07:23:20;;;;;;;29.98;25.92;;;;;;;;;;5093095;28;20653;-70
2021/05/06 07:25:47;;;;;;;31.25;26.27;;;;;;;;;;5092034;28;20409;-69
2021/05/06 07:28:15;;;;;;;30.90;25.83;;;;;;;;;;5092929;28;20377;-70
2021/05/06 07:30:41;;;;;;;31.03;25.80;;;;;;;;;;5092473;28;20365;-70
2021/05/06 07:33:07;;;;;;;30.75;25.00;;;;;;;;;;5092822;28;20374;-70
2021/05/06 07:35:33;;;;;;;30.77;26.30;;;;;;;;;;5092310;28;20450;-70
2021/05/06 07:37:59;;;;;;;29.02;25.75;;;;;;;;;;5092602;28;20369;-70
2021/05/06 07:40:26;;;;;;;28.15;22.88;;;;;;;;;;5091977;28;20401;-70
2021/05/06 07:42:52;;;;;;;27.83;22.83;;;;;;;;;;5080803;28;20376;-71
2021/05/06 07:45:18;;;;;;;27.15;23.02;;;;;;;;;;5086880;28;20874;-71
2021/05/06 07:47:44;;;;;;;28.60;24.40;;;;;;;;;;5078463;28;20457;-70
2021/05/06 07:50:10;;;;;;;26.85;22.35;;;;;;;;;;5077289;28;20404;-70
2021/05/06 07:52:37;;;;;;;28.43;23.00;;;;;;;;;;5082914;28;20403;-70
2021/05/06 07:55:03;;;;;;;29.42;24.52;;;;;;;;;;5073628;28;20407;-70
2021/05/06 07:57:29;;;;;;;29.42;24.73;;;;;;;;;;5088290;28;20384;-70
2021/05/06 07:59:55;;;;;;;32.45;25.98;;;;;;;;;;5088200;28;20448;-72
2021/05/06 08:02:22;;;;;;;29.37;24.07;;;;;;;;;;5075341;28;20830;-70
2021/05/06 08:04:48;;;;;;;26.73;22.58;;;;;;;;;;5070035;28;20425;-70
2021/05/06 08:07:14;;;;;;;28.50;24.27;;;;;;;;;;5078957;28;20389;-70
2021/05/06 08:09:40;;;;;;;31.63;25.77;;;;;;;;;;5076776;28;20383;-70
2021/05/06 08:12:06;;;;;;;33.33;25.80;;;;;;;;;;5078795;28;20410;-71
2021/05/06 08:14:33;;;;;;;31.00;26.15;;;;;;;;;;5074934;28;20864;-71
2021/05/06 08:16:59;;;;;;;30.13;24.77;;;;;;;;;;5073791;28;20410;-70
2021/05/06 08:19:25;;;;;;;30.27;25.40;;;;;;;;;;5076167;28;20718;-71
2021/05/06 08:21:51;;;;;;;31.52;25.52;;;;;;;;;;5073209;28;20853;-71
2021/05/06 08:24:17;;;;;;;29.13;24.52;;;;;;;;;;5075348;28;20464;-70
2021/05/06 08:26:43;;;;;;;28.77;24.38;;;;;;;;;;5071969;28;20419;-70
2021/05/06 08:29:09;;;;;;;28.00;24.50;;;;;;;;;;5067720;28;20473;-72
2021/05/06 08:31:35;;;;;;;27.40;24.40;;;;;;;;;;5067548;28;20442;-71
2021/05/06 08:34:01;;;;;;;27.85;23.13;;;;;;;;;;5079718;28;20400;-70
2021/05/06 08:36:27;;;;;;;26.55;22.80;;;;;;;;;;5085115;28;20993;-71
2021/05/06 08:38:53;;;;;;;25.93;21.43;;;;;;;;;;5080208;28;20465;-71
2021/05/06 08:41:20;;;;;;;28.30;21.25;;;;;;;;;;5076393;28;20411;-72
2021/05/06 08:43:55;;;;;;;21.52;18.85;;;;;;;;;;5074092;28;20410;-70
2021/05/06 08:46:21;;;;;;;21.35;18.27;;;;;;;;;;5078067;28;20621;-70
2021/05/06 08:48:48;;;;;;;20.42;16.35;;;;;;;;;;5083604;28;20401;-70
2021/05/06 08:51:15;;;;;;;18.75;15.13;;;;;;;;;;5082909;28;20390;-70
2021/05/06 08:53:43;;;;;;;16.92;14.07;;;;;;;;;;5082381;28;20367;-70
2021/05/06 08:56:09;;;;;;;14.90;12.60;;;;;;;;;;5078824;28;20821;-70
2021/05/06 08:58:35;;;;;;;14.82;11.68;;;;;;;;;;5076823;28;20839;-70
2021/05/06 09:01:01;;;;;;;14.43;11.50;;;;;;;;;;5071439;28;20380;-70
2021/05/06 09:03:27;;;;;;;15.77;11.77;;;;;;;;;;5070512;28;21013;-70
2021/05/06 09:06:10;;;;;;;13.13;10.40;;;;;;;;;;5070589;28;20698;-70
2021/05/06 09:08:37;;;;;;;14.95;11.32;;;;;;;;;;5070739;28;20372;-71
2021/05/06 09:11:03;;;;;;;14.20;11.57;;;;;;;;;;5072049;28;20746;-70
2021/05/06 09:13:30;;;;;;;13.30;11.20;;;;;;;;;;5075800;28;20570;-72
2021/05/06 09:15:57;;;;;;;13.27;10.75;;;;;;;;;;5080610;28;20509;-71
2021/05/06 09:18:35;;;;;;;12.90;10.47;;;;;;;;;;5075547;28;20380;-70
2021/05/06 09:21:01;;;;;;;12.50;9.80;;;;;;;;;;5078494;28;20422;-70
2021/05/06 09:23:27;;;;;;;10.93;9.32;;;;;;;;;;5076655;28;20415;-70
2021/05/06 09:25:53;;;;;;;12.65;9.75;;;;;;;;;;5080471;28;20469;-70
2021/05/06 09:28:21;;;;;;;13.25;10.02;;;;;;;;;;5079654;28;21144;-70
2021/05/06 09:30:47;;;;;;;13.10;9.50;;;;;;;;;;5077130;28;20453;-71
2021/05/06 09:33:12;;;;;;;10.30;9.05;;;;;;;;;;5082871;28;20489;-71
2021/05/06 09:35:40;;;;;;;13.52;9.43;;;;;;;;;;5073050;28;20487;-70
2021/05/06 09:38:21;;;;;;;11.43;9.30;;;;;;;;;;5084605;28;20469;-70
2021/05/06 09:40:48;;;;;;;10.45;8.48;;;;;;;;;;5072026;28;20784;-70
2021/05/06 09:43:24;;;;;;;11.00;8.90;;;;;;;;;;5074168;28;20479;-70
2021/05/06 09:45:51;;;;;;;11.38;9.13;;;;;;;;;;5076437;28;20459;-70
2021/05/06 09:48:19;;;;;;;11.43;9.80;;;;;;;;;;5073820;28;20392;-70
2021/05/06 09:50:48;;;;;;;11.50;9.77;;;;;;;;;;5072382;28;21189;-70
2021/05/06 09:53:17;;;;;;;13.60;10.93;;;;;;;;;;5079787;28;20413;-70
2021/05/06 09:55:45;;;;;;;12.35;11.05;;;;;;;;;;5082962;28;20394;-70
2021/05/06 09:58:27;;;;;;;13.90;12.18;;;;;;;;;;5085653;28;20535;-70
2021/05/06 10:00:54;;;;;;;13.05;11.60;;;;;;;;;;5077281;28;20393;-71
2021/05/06 10:03:21;;;;;;;12.25;10.93;;;;;;;;;;5070528;28;20420;-71
2021/05/06 10:05:49;;;;;;;15.07;11.43;;;;;;;;;;5071915;28;20438;-72
2021/05/06 10:08:16;;;;;;;12.88;8.98;;;;;;;;;;5071130;28;20452;-71
2021/05/06 10:10:42;;;;;;;11.48;9.07;;;;;;;;;;5074275;28;20729;-70
2021/05/06 10:13:10;;;;;;;12.77;9.30;;;;;;;;;;5075350;28;21023;-71
2021/05/06 10:15:37;;;;;;;11.43;9.38;;;;;;;;;;5072320;28;20403;-71
2021/05/06 10:18:03;;;;;;;11.30;9.27;;;;;;;;;;5074066;28;20382;-71
2021/05/06 10:20:29;;;;;;;10.75;7.75;;;;;;;;;;5076234;28;20463;-70
2021/05/06 10:22:56;;;;;;;9.65;7.32;;;;;;;;;;5084426;28;20422;-70
2021/05/06 10:25:23;;;;;;;10.20;7.00;;;;;;;;;;5078676;28;20501;-69
2021/05/06 10:27:50;;;;;;;9.55;7.10;;;;;;;;;;5074348;28;20431;-70
2021/05/06 10:30:17;;;;;;;10.23;8.05;;;;;;;;;;5074710;28;20477;-69
2021/05/06 10:32:44;;;;;;;11.68;9.00;;;;;;;;;;5076925;28;20370;-69
2021/05/06 10:35:11;;;;;;;10.95;8.98;;;;;;;;;;5077386;28;20391;-70
2021/05/06 10:37:38;;;;;;;11.98;9.27;;;;;;;;;;5074113;28;20376;-69
2021/05/06 10:40:23;;;;;;;11.15;9.00;;;;;;;;;;5076456;28;20794;-69
2021/05/06 10:42:50;;;;;;;10.73;9.05;;;;;;;;;;5072046;28;20865;-70
2021/05/06 10:45:21;;;;;;;10.82;8.57;;;;;;;;;;5081611;28;20637;-69
2021/05/06 10:47:50;;;;;;;10.77;7.75;;;;;;;;;;5079045;28;20419;-70
2021/05/06 10:50:18;;;;;;;10.50;8.07;;;;;;;;;;5072852;28;21097;-69
2021/05/06 10:52:45;;;;;;;9.07;7.80;;;;;;;;;;5083789;28;20486;-69
2021/05/06 10:55:11;;;;;;;9.27;8.02;;;;;;;;;;5078652;28;20409;-69
2021/05/06 10:57:38;;;;;;;11.95;7.55;;;;;;;;;;5081316;28;20389;-70
2021/05/06 11:00:25;;;;;;;10.57;7.78;;;;;;;;;;5069351;28;20550;-70
2021/05/06 11:02:53;;;;;;;11.70;7.40;;;;;;;;;;5069034;28;20418;-69
2021/05/06 11:05:22;;;;;;;9.80;7.57;;;;;;;;;;5081773;28;20415;-69
2021/05/06 11:08:14;;;;;;;10.95;7.60;;;;;;;;;;5083299;28;20382;-69
2021/05/06 11:11:00;;;;;;;8.98;7.50;;;;;;;;;;5052363;28;20419;-71
2021/05/06 11:13:28;;;;;;;9.52;7.22;;;;;;;;;;5064592;28;20382;-69
2021/05/06 11:16:13;;;;;;;8.85;7.25;;;;;;;;;;5085043;28;20394;-70
2021/05/06 11:18:43;;;;;;;10.50;7.45;;;;;;;;;;5080467;28;20390;-70
2021/05/06 11:21:09;;;;;;;12.07;7.80;;;;;;;;;;5073812;28;20435;-69
2021/05/06 11:23:37;;;;;;;10.57;8.13;;;;;;;;;;5080346;28;20383;-70
2021/05/06 11:26:11;;;;;;;11.20;7.20;;;;;;;;;;5082917;28;20405;-70
2021/05/06 11:28:37;;;;;;;8.30;6.37;;;;;;;;;;5068458;28;20459;-69
2021/05/06 11:31:03;;;;;;;8.85;5.50;;;;;;;;;;5067656;28;20506;-71
2021/05/06 11:33:29;;;;;;;7.65;4.28;;;;;;;;;;5082703;28;20771;-69
2021/05/06 11:36:11;;;;;;;6.22;4.15;;;;;;;;;;5084498;28;20381;-70
2021/05/06 11:38:41;;;;;;;6.20;4.20;;;;;;;;;;5080340;28;20370;-69
2021/05/06 11:41:07;;;;;;;5.45;4.20;;;;;;;;;;5079704;28;20402;-69
2021/05/06 11:43:33;;;;;;;5.30;3.80;;;;;;;;;;5084049;28;20728;-69
2021/05/06 11:46:06;;;;;;;6.93;4.22;;;;;;;;;;5076006;28;21190;-69
2021/05/06 11:48:39;;;;;;;6.57;3.90;;;;;;;;;;5076704;28;20446;-69
2021/05/06 11:51:05;;;;;;;5.80;4.30;;;;;;;;;;5074799;28;20388;-70
2021/05/06 11:53:31;;;;;;;7.65;4.82;;;;;;;;;;5074943;28;20934;-68
2021/05/06 11:55:58;;;;;;;7.82;4.80;;;;;;;;;;5083637;28;20724;-70
2021/05/06 11:58:26;;;;;;;7.18;4.72;;;;;;;;;;5082366;28;20375;-70
2021/05/06 12:00:53;;;;;;;6.85;4.85;;;;;;;;;;5080292;28;20390;-70
2021/05/06 12:03:19;;;;;;;6.50;4.63;;;;;;;;;;5084715;28;20394;-69
2021/05/06 12:05:56;;;;;;;8.80;5.15;;;;;;;;;;5081204;28;20421;-70
2021/05/06 12:08:24;;;;;;;7.70;4.73;;;;;;;;;;5076842;28;20396;-70
2021/05/06 12:10:50;;;;;;;5.90;4.25;;;;;;;;;;5081171;28;20481;-69
2021/05/06 12:13:23;;;;;;;6.70;4.00;;;;;;;;;;5074432;28;20491;-70
2021/05/06 12:15:50;;;;;;;6.60;4.10;;;;;;;;;;5078198;28;20406;-70
2021/05/06 12:18:24;;;;;;;6.43;4.03;;;;;;;;;;5092058;28;20858;-70
2021/05/06 12:20:53;;;;;;;6.27;4.10;;;;;;;;;;5077129;28;20485;-70
2021/05/06 12:23:20;;;;;;;5.93;3.95;;;;;;;;;;5072149;28;20881;-70
2021/05/06 12:25:46;;;;;;;6.63;4.03;;;;;;;;;;5071745;28;20467;-70
2021/05/06 12:28:12;;;;;;;7.72;3.90;;;;;;;;;;5072084;28;20873;-71
2021/05/06 12:30:38;;;;;;;7.68;4.38;;;;;;;;;;5072793;28;20886;-71
2021/05/06 12:33:04;;;;;;;5.75;3.90;;;;;;;;;;5059363;28;20384;-70
2021/05/06 12:35:30;;;;;;;6.45;4.00;;;;;;;;;;5059086;28;20411;-70
2021/05/06 12:37:56;;;;;;;7.43;4.63;;;;;;;;;;5065249;28;20394;-70
2021/05/06 12:40:26;;;;;;;6.53;4.50;;;;;;;;;;5065098;28;20446;-71
2021/05/06 12:42:52;;;;;;;6.90;4.80;;;;;;;;;;5066512;28;20510;-69
2021/05/06 12:45:18;;;;;;;7.53;4.60;;;;;;;;;;5064606;28;20419;-71
2021/05/06 12:47:49;;;;;;;6.63;4.68;;;;;;;;;;5071309;28;21169;-70
2021/05/06 12:50:19;;;;;;;6.43;4.18;;;;;;;;;;5072142;28;20446;-70
2021/05/06 12:52:46;;;;;;;7.25;4.43;;;;;;;;;;5070813;28;20368;-69
2021/05/06 12:55:26;;;;;;;7.60;4.63;;;;;;;;;;5080650;28;20904;-70
2021/05/06 12:58:04;;;;;;;8.68;4.82;;;;;;;;;;5077075;28;20390;-70
2021/05/06 13:00:33;;;;;;;8.60;5.30;;;;;;;;;;5083566;28;20514;-70
2021/05/06 13:03:10;;;;;;;8.67;5.27;;;;;;;;;;5080050;28;21111;-70
2021/05/06 13:05:42;;;;;;;9.60;5.40;;;;;;;;;;5080196;28;21219;-70
2021/05/06 13:08:08;;;;;;;7.63;5.13;;;;;;;;;;5081965;28;20429;-70
2021/05/06 13:10:38;;;;;;;7.15;4.95;;;;;;;;;;5081267;28;20434;-70
2021/05/06 13:13:05;;;;;;;7.28;4.85;;;;;;;;;;5079595;28;20429;-69
2021/05/06 13:15:45;;;;;;;7.72;5.05;;;;;;;;;;5075439;28;20392;-70
2021/05/06 13:18:12;;;;;;;7.03;4.93;;;;;;;;;;5074471;28;20440;-71
2021/05/06 13:20:40;;;;;;;7.47;4.70;;;;;;;;;;5077803;28;20398;-71
2021/05/06 13:23:07;;;;;;;7.25;4.88;;;;;;;;;;5081818;28;20749;-69
2021/05/06 13:25:40;;;;;;;5.90;4.10;;;;;;;;;;5085714;28;20422;-69
2021/05/06 13:28:06;;;;;;;6.80;4.53;;;;;;;;;;5075655;28;20549;-69
2021/05/06 13:30:33;;;;;;;8.88;5.55;;;;;;;;;;5085818;28;20398;-69
2021/05/06 13:33:09;;;;;;;9.82;5.68;;;;;;;;;;5089204;28;20385;-69
2021/05/06 13:35:35;;;;;;;8.38;6.00;;;;;;;;;;5075065;28;20376;-69
2021/05/06 13:38:01;;;;;;;8.87;5.80;;;;;;;;;;5072406;28;20903;-68
2021/05/06 13:40:27;;;;;;;8.38;5.90;;;;;;;;;;5071864;28;20399;-69
2021/05/06 13:42:53;;;;;;;9.85;6.07;;;;;;;;;;5076485;28;20447;-69
2021/05/06 13:45:19;;;;;;;9.07;5.80;;;;;;;;;;5082641;28;20422;-69
2021/05/06 13:47:48;;;;;;;8.43;6.20;;;;;;;;;;5075553;28;20442;-68
2021/05/06 13:50:15;;;;;;;8.48;6.07;;;;;;;;;;5082490;28;20446;-68
2021/05/06 13:52:41;;;;;;;8.63;5.88;;;;;;;;;;5079881;28;20395;-68
2021/05/06 13:55:07;;;;;;;7.75;5.63;;;;;;;;;;5072833;28;20449;-71
2021/05/06 13:57:33;;;;;;;8.73;6.13;;;;;;;;;;5079259;28;20436;-71
2021/05/06 13:59:59;;;;;;;8.00;5.90;;;;;;;;;;5078009;28;20423;-68
2021/05/06 14:02:27;;;;;;;8.27;6.22;;;;;;;;;;5071243;28;21018;-69
2021/05/06 14:04:53;;;;;;;7.72;6.32;;;;;;;;;;5082604;28;20421;-69
2021/05/06 14:07:19;;;;;;;7.95;6.10;;;;;;;;;;5072623;28;20395;-69
2021/05/06 14:09:45;;;;;;;9.17;6.33;;;;;;;;;;5078797;28;20390;-68
2021/05/06 14:12:11;;;;;;;8.10;5.88;;;;;;;;;;5072486;28;20522;-68
2021/05/06 14:14:37;;;;;;;8.95;6.30;;;;;;;;;;5080878;28;20405;-69
2021/05/06 14:17:03;;;;;;;8.82;6.15;;;;;;;;;;5087044;28;20389;-69
2021/05/06 14:19:29;;;;;;;10.50;6.32;;;;;;;;;;5073218;28;20459;-68
2021/05/06 14:21:56;;;;;;;8.68;6.45;;;;;;;;;;5088549;28;20385;-68
2021/05/06 14:24:22;;;;;;;10.32;6.88;;;;;;;;;;5089055;28;20374;-69
2021/05/06 14:26:49;;;;;;;10.23;6.30;;;;;;;;;;5072004;28;20872;-69
2021/05/06 14:29:16;;;;;;;8.68;5.95;;;;;;;;;;5072539;28;20397;-68
2021/05/06 14:31:42;;;;;;;7.93;5.82;;;;;;;;;;5078510;28;20467;-69
2021/05/06 14:34:08;;;;;;;8.48;6.38;;;;;;;;;;5079593;28;20422;-69
2021/05/06 14:36:34;;;;;;;8.02;5.43;;;;;;;;;;5078005;28;20383;-68
2021/05/06 14:39:02;;;;;;;8.73;5.80;;;;;;;;;;5084632;28;20381;-69
2021/05/06 14:41:29;;;;;;;7.97;5.70;;;;;;;;;;5090086;28;20370;-68
2021/05/06 14:43:55;;;;;;;8.15;6.15;;;;;;;;;;5078017;28;20415;-68
2021/05/06 14:46:22;;;;;;;7.63;5.40;;;;;;;;;;5077854;28;22673;-69
2021/05/06 14:48:49;;;;;;;7.40;4.80;;;;;;;;;;5076460;28;20482;-70
2021/05/06 14:51:15;;;;;;;7.95;5.07;;;;;;;;;;5079067;28;20404;-69
2021/05/06 14:53:41;;;;;;;8.48;4.70;;;;;;;;;;5077073;28;20447;-69
2021/05/06 14:56:07;;;;;;;8.82;5.07;;;;;;;;;;5095894;28;20375;-68
2021/05/06 14:58:33;;;;;;;7.40;4.72;;;;;;;;;;5078021;28;20398;-68
2021/05/06 15:00:59;;;;;;;8.00;5.07;;;;;;;;;;5072591;28;20406;-69
2021/05/06 15:03:25;;;;;;;8.82;4.95;;;;;;;;;;5079745;28;20392;-68
2021/05/06 15:05:51;;;;;;;8.38;5.22;;;;;;;;;;5079098;28;20428;-68
2021/05/06 15:08:17;;;;;;;8.23;5.17;;;;;;;;;;5078841;28;20406;-68
2021/05/06 15:10:44;;;;;;;7.87;5.30;;;;;;;;;;5078226;28;20486;-68
2021/05/06 15:13:10;;;;;;;7.73;5.50;;;;;;;;;;5078200;28;20554;-69
2021/05/06 15:15:36;;;;;;;8.38;5.50;;;;;;;;;;5075491;28;20447;-69
2021/05/06 15:18:02;;;;;;;8.40;5.63;;;;;;;;;;5080159;28;20402;-69
2021/05/06 15:20:29;;;;;;;7.78;5.57;;;;;;;;;;5078804;28;20406;-69
2021/05/06 15:22:55;;;;;;;8.02;5.38;;;;;;;;;;5077483;28;20403;-69
2021/05/06 15:25:21;;;;;;;6.97;5.05;;;;;;;;;;5077623;28;20430;-71
2021/05/06 15:27:47;;;;;;;7.80;4.90;;;;;;;;;;5080607;28;20400;-70
2021/05/06 15:30:15;;;;;;;8.55;5.32;;;;;;;;;;5078613;28;20894;-70
2021/05/06 15:32:41;;;;;;;7.72;5.65;;;;;;;;;;5073196;28;20395;-69
2021/05/06 15:35:07;;;;;;;7.20;4.63;;;;;;;;;;5079161;28;20394;-70
2021/05/06 15:37:34;;;;;;;8.25;5.00;;;;;;;;;;5074982;28;21025;-69
2021/05/06 15:40:00;;;;;;;7.30;4.57;;;;;;;;;;5075171;28;20402;-69
2021/05/06 15:42:26;;;;;;;7.78;5.10;;;;;;;;;;5074679;28;20897;-69
2021/05/06 15:44:52;;;;;;;8.23;5.35;;;;;;;;;;5079282;28;20423;-69
2021/05/06 15:47:18;;;;;;;7.25;5.15;;;;;;;;;;5078777;28;20396;-69
2021/05/06 15:49:44;;;;;;;8.07;5.22;;;;;;;;;;5080655;28;20401;-71
2021/05/06 15:52:11;;;;;;;6.78;4.45;;;;;;;;;;5071495;28;20387;-71
2021/05/06 15:54:37;;;;;;;7.93;4.35;;;;;;;;;;5072454;28;20438;-71
2021/05/06 15:57:04;;;;;;;7.95;4.20;;;;;;;;;;5076936;28;20406;-70
2021/05/06 15:59:30;;;;;;;10.57;3.58;;;;;;;;;;5078506;28;20454;-70
2021/05/06 16:01:56;;;;;;;6.68;3.60;;;;;;;;;;5083738;28;20406;-68
2021/05/06 16:04:34;;;;;;;6.93;3.37;;;;;;;;;;5071079;28;20801;-69
2021/05/06 16:07:00;;;;;;;5.53;3.30;;;;;;;;;;5086249;28;20390;-69
2021/05/06 16:09:26;;;;;;;5.93;3.30;;;;;;;;;;5071445;28;20705;-69
2021/05/06 16:11:53;;;;;;;5.67;3.43;;;;;;;;;;5071573;28;20399;-69
2021/05/06 16:14:19;;;;;;;6.85;3.70;;;;;;;;;;5075020;28;20908;-68
2021/05/06 16:16:45;;;;;;;5.50;3.65;;;;;;;;;;5090068;28;20405;-69
2021/05/06 16:19:11;;;;;;;7.33;3.80;;;;;;;;;;5078207;28;21006;-69
2021/05/06 16:21:37;;;;;;;6.88;3.75;;;;;;;;;;5089906;28;20400;-69
2021/05/06 16:24:04;;;;;;;6.63;3.70;;;;;;;;;;5072488;28;20368;-68
2021/05/06 16:26:30;;;;;;;8.60;4.63;;;;;;;;;;5073228;28;20536;-69
2021/05/06 16:28:56;;;;;;;7.50;4.05;;;;;;;;;;5080106;28;20398;-69
2021/05/06 16:31:22;;;;;;;;;;;;;;;;;;5084105;28;20390;-69
2021/05/06 16:33:54;;;;;;;6.03;3.42;;;;;;;;;;5092443;28;20474;-69
2021/05/06 16:42:15;;;;;;;6.28;3.40;;;;;;;;;;5081167;28;20476;-69
2021/05/06 16:44:31;;;;;;;6.07;3.20;;;;;;;;;;5068913;28;20403;-69
2021/05/06 16:47:04;;;;;;;5.70;3.10;;;;;;;;;;5069159;28;21703;-69
2021/05/06 16:49:32;;;;;;;6.57;3.38;;;;;;;;;;5074287;28;20457;-69
2021/05/06 16:51:58;;;;;;;5.43;2.83;;;;;;;;;;5071263;28;20395;-69
2021/05/06 16:54:25;;;;;;;6.18;3.30;;;;;;;;;;5078452;28;20396;-70
2021/05/06 16:56:51;;;;;;;6.38;3.40;;;;;;;;;;5070646;28;20406;-68
2021/05/06 16:59:18;;;;;;;6.97;3.33;;;;;;;;;;5079464;28;20376;-69
2021/05/06 17:01:44;;;;;;;4.97;3.10;;;;;;;;;;5072519;28;20478;-70
2021/05/06 17:04:10;;;;;;;6.90;3.35;;;;;;;;;;5079863;28;20388;-69
2021/05/06 17:06:37;;;;;;;6.70;3.15;;;;;;;;;;5079384;28;21223;-69
2021/05/06 17:09:03;;;;;;;;;;;;;;;;;;5077072;28;20405;-69
2021/05/06 17:11:29;;;;;;;5.60;3.15;;;;;;;;;;5074960;28;20405;-69
2021/05/06 17:13:55;;;;;;;5.72;3.10;;;;;;;;;;5073265;28;20476;-69
2021/05/06 17:16:21;;;;;;;7.22;3.10;;;;;;;;;;5080951;28;20416;-68
2021/05/06 17:18:47;;;;;;;6.32;3.40;;;;;;;;;;5080969;28;20446;-69
2021/05/06 17:21:13;;;;;;;5.10;2.80;;;;;;;;;;5086221;28;20377;-69
2021/05/06 17:23:39;;;;;;;6.80;3.10;;;;;;;;;;5080585;28;20378;-68
2021/05/06 17:26:05;;;;;;;5.72;2.75;;;;;;;;;;5077845;28;20463;-69
2021/05/06 17:28:31;;;;;;;5.50;2.85;;;;;;;;;;5090001;28;20461;-69
2021/05/06 17:30:57;;;;;;;7.67;3.70;;;;;;;;;;5088014;28;20507;-69
2021/05/06 17:33:24;;;;;;;5.75;2.97;;;;;;;;;;5073804;28;20443;-68
2021/05/06 17:35:50;;;;;;;7.05;3.50;;;;;;;;;;5087877;28;20433;-69
2021/05/06 17:38:16;;;;;;;5.93;3.35;;;;;;;;;;5078165;28;20502;-69